Edzard Schulte — 2CVX9 — position and weather

sailwx.info

Track history (hours):
 
Tides and Currents Weather Stations Pressure Air Temp Water Temp Dewpoint Dewpoint Depression Visibility Wind Speed Wind Dir Waves Ship Positions

Edzard Schulte

Last reported at 2016-May-01 07:13 UTC. Time now 2016-May-03 12:28 UTC.
Position N 26°10' W 079°24'.

Length 145 m; draft 9.7 m.

Type: Tanker. MMSI: 235076245.

Date/timePositionNaut miles runAvg speedWind from/ knotsBaromVisibWave heightAir tempDewpointWater temp
2016-May-01 07:13N 26°10' W 079°24'1014.4
2016-May-01 06:32N 26°00' W 079°26'  
2016-Apr-28 00:09N 29°35' W 093°17'5 8.3
2016-Apr-27 23:33N 29°39' W 093°20'9 8.5
2016-Apr-27 22:33N 29°48' W 093°21'8 8.4
2016-Apr-27 21:33N 29°56' W 093°20'8 7.5
2016-Apr-27 20:33N 30°04' W 093°20'5 5.1
2016-Apr-27 19:34N 30°09' W 093°20'0 0.0
2016-Apr-27 18:31N 30°09' W 093°20'0 0.0
2016-Apr-27 17:31N 30°09' W 093°20'0 0.0
2016-Apr-27 16:31N 30°09' W 093°20'0 0.0
2016-Apr-27 15:28N 30°09' W 093°20'0 0.0
2016-Apr-27 14:31N 30°09' W 093°20'0 0.0
2016-Apr-27 13:33N 30°09' W 093°20'0 0.0
2016-Apr-27 12:33N 30°09' W 093°20'0 0.0
2016-Apr-27 11:31N 30°09' W 093°20'0 0.0
2016-Apr-27 10:28N 30°09' W 093°20'0 0.0
2016-Apr-27 09:28N 30°09' W 093°20'0 0.0
2016-Apr-27 08:31N 30°09' W 093°20'0 0.0
2016-Apr-27 07:34N 30°09' W 093°20'0 0.0
2016-Apr-27 06:33N 30°09' W 093°20'0 0.0
2016-Apr-27 05:34N 30°09' W 093°20'0 0.0
2016-Apr-27 04:34N 30°09' W 093°20'0 0.0
2016-Apr-27 03:33N 30°09' W 093°20'0 0.0
2016-Apr-27 02:34N 30°09' W 093°20'0 0.0
2016-Apr-27 01:34N 30°09' W 093°20'0 0.0
2016-Apr-27 00:24N 30°09' W 093°20'0 0.0
2016-Apr-26 23:30N 30°09' W 093°20'0 0.0
2016-Apr-26 22:31N 30°09' W 093°20'0 0.0
2016-Apr-26 21:33N 30°09' W 093°20'0 0.0
2016-Apr-26 20:34N 30°09' W 093°20'0 0.0
2016-Apr-26 19:33N 30°09' W 093°20'0 0.0
2016-Apr-26 18:33N 30°09' W 093°20'0 0.0
2016-Apr-26 17:33N 30°09' W 093°20'0 0.0
2016-Apr-26 16:34N 30°09' W 093°20'0 0.0
2016-Apr-26 15:30N 30°09' W 093°20'0 0.0
2016-Apr-26 14:33N 30°09' W 093°20'0 0.0
2016-Apr-26 13:33N 30°09' W 093°20'0 0.0
2016-Apr-26 12:33N 30°09' W 093°20'0 0.0
2016-Apr-26 11:33N 30°09' W 093°20'0 0.0
2016-Apr-26 10:33N 30°09' W 093°20'3 2.6
2016-Apr-26 09:33N 30°06' W 093°20'4 4.4
2016-Apr-26 08:33N 30°02' W 093°20'6 6.5
2016-Apr-26 07:33N 29°55' W 093°20'8 7.6
2016-Apr-26 06:33N 29°48' W 093°21'8 8.1
2016-Apr-26 05:33N 29°40' W 093°20'4 3.1
2016-Apr-26 04:15N 29°37' W 093°17'0 0.0
2016-Apr-26 02:33N 29°37' W 093°17'0 0.0
2016-Apr-26 00:33N 29°37' W 093°17'0 0.0
2016-Apr-25 23:24N 29°37' W 093°17'0 0.0
2016-Apr-25 22:33N 29°37' W 093°17'0 0.0
2016-Apr-25 21:27N 29°37' W 093°17'0 0.0
2016-Apr-25 20:33N 29°37' W 093°17'0 0.0
2016-Apr-25 18:24N 29°37' W 093°17'0 0.0
2016-Apr-25 17:33N 29°37' W 093°17'0 0.0
2016-Apr-25 16:33N 29°37' W 093°17'2 0.8
2016-Apr-25 14:32N 29°36' W 093°18'78 9.8
2016-Apr-25 06:32N 29°21' W 094°46'1111.6
2016-Apr-25 05:33N 29°31' W 094°53'1111.2
2016-Apr-25 04:33N 29°40' W 094°59'8 7.8
2016-Apr-25 03:33N 29°46' W 095°05'1 0.0
2016-Apr-24 06:32N 29°45' W 095°06'5 5.2
2016-Apr-24 05:33N 29°42' W 095°01'10 9.9
2016-Apr-24 04:33N 29°34' W 094°55'1110.5
2016-Apr-24 03:33N 29°24' W 094°49'4 0.5
2016-Apr-23 19:32N 29°21' W 094°47'1211.8
2016-Apr-23 18:33N 29°31' W 094°53'9 8.8
2016-Apr-23 17:34N 29°37' W 095°00'1 0.9
2016-Apr-23 16:32N 29°37' W 095°02'0 0.0
2016-Apr-23 15:32N 29°37' W 095°02'0 0.0
2016-Apr-23 14:29N 29°37' W 095°02'0 0.0
2016-Apr-23 13:32N 29°37' W 095°02'0 0.0
2016-Apr-23 12:32N 29°37' W 095°02'0 0.0
2016-Apr-23 11:32N 29°37' W 095°02'0 0.0
2016-Apr-23 10:32N 29°37' W 095°02'0 0.0
2016-Apr-23 09:29N 29°37' W 095°02'0 0.0
2016-Apr-23 08:32N 29°37' W 095°02'0 0.0
2016-Apr-23 07:32N 29°37' W 095°02'0 0.0
2016-Apr-23 06:32N 29°37' W 095°02'0 0.0
2016-Apr-23 05:32N 29°37' W 095°02'0 0.0
2016-Apr-23 04:32N 29°37' W 095°02'0 0.0
2016-Apr-23 03:32N 29°37' W 095°02'0 0.0
2016-Apr-23 02:32N 29°37' W 095°02'0 0.0
2016-Apr-23 01:32N 29°37' W 095°02'0 0.0
2016-Apr-23 00:32N 29°37' W 095°02'0 0.0
2016-Apr-22 23:32N 29°37' W 095°02'0 0.0
2016-Apr-22 22:32N 29°37' W 095°02'0 0.0
2016-Apr-22 21:32N 29°37' W 095°02'0 0.0
2016-Apr-22 20:32N 29°37' W 095°02'0 0.0
2016-Apr-22 19:32N 29°37' W 095°02'0 0.0
2016-Apr-22 18:32N 29°37' W 095°02'0 0.0
2016-Apr-22 17:32N 29°37' W 095°02'0 0.0
2016-Apr-22 16:32N 29°37' W 095°02'0 0.0
2016-Apr-22 15:32N 29°37' W 095°02'0 0.0
2016-Apr-22 14:32N 29°37' W 095°02'0 0.0
2016-Apr-22 13:32N 29°37' W 095°02'0 0.0
2016-Apr-22 12:32N 29°37' W 095°02'1 1.3
2016-Apr-22 11:33N 29°37' W 095°00'6 5.8
2016-Apr-22 10:33N 29°43' W 095°01'6 6.1
2016-Apr-22 09:30N 29°44' W 095°08'6 5.7
2016-Apr-22 08:31N 29°43' W 095°15'  
Track history (hours):
 
Tides and Currents Weather Stations Pressure Air Temp Water Temp Dewpoint Dewpoint Depression Visibility Wind Speed Wind Dir Waves Ship Positions

Edzard Schulte

Last reported at 2016-May-01 07:13 UTC. Time now 2016-May-03 12:28 UTC.
Position N 26°10' W 079°24'.

Length 145 m; draft 9.7 m.

Type: Tanker. MMSI: 235076245.

Date/timePositionNaut miles runAvg speedWind from/ knotsBaromVisibWave heightAir tempDewpointWater temp
2016-May-01 07:13N 26°10' W 079°24'1014.4
2016-May-01 06:32N 26°00' W 079°26'  
2016-Apr-28 00:09N 29°35' W 093°17'5 8.3
2016-Apr-27 23:33N 29°39' W 093°20'9 8.5
2016-Apr-27 22:33N 29°48' W 093°21'8 8.4
2016-Apr-27 21:33N 29°56' W 093°20'8 7.5
2016-Apr-27 20:33N 30°04' W 093°20'5 5.1
2016-Apr-27 19:34N 30°09' W 093°20'0 0.0
2016-Apr-27 18:31N 30°09' W 093°20'0 0.0
2016-Apr-27 17:31N 30°09' W 093°20'0 0.0
2016-Apr-27 16:31N 30°09' W 093°20'0 0.0
2016-Apr-27 15:28N 30°09' W 093°20'0 0.0
2016-Apr-27 14:31N 30°09' W 093°20'0 0.0
2016-Apr-27 13:33N 30°09' W 093°20'0 0.0
2016-Apr-27 12:33N 30°09' W 093°20'0 0.0
2016-Apr-27 11:31N 30°09' W 093°20'0 0.0
2016-Apr-27 10:28N 30°09' W 093°20'0 0.0
2016-Apr-27 09:28N 30°09' W 093°20'0 0.0
2016-Apr-27 08:31N 30°09' W 093°20'0 0.0
2016-Apr-27 07:34N 30°09' W 093°20'0 0.0
2016-Apr-27 06:33N 30°09' W 093°20'0 0.0
2016-Apr-27 05:34N 30°09' W 093°20'0 0.0
2016-Apr-27 04:34N 30°09' W 093°20'0 0.0
2016-Apr-27 03:33N 30°09' W 093°20'0 0.0
2016-Apr-27 02:34N 30°09' W 093°20'0 0.0
2016-Apr-27 01:34N 30°09' W 093°20'0 0.0
2016-Apr-27 00:24N 30°09' W 093°20'0 0.0
2016-Apr-26 23:30N 30°09' W 093°20'0 0.0
2016-Apr-26 22:31N 30°09' W 093°20'0 0.0
2016-Apr-26 21:33N 30°09' W 093°20'0 0.0
2016-Apr-26 20:34N 30°09' W 093°20'0 0.0
2016-Apr-26 19:33N 30°09' W 093°20'0 0.0
2016-Apr-26 18:33N 30°09' W 093°20'0 0.0
2016-Apr-26 17:33N 30°09' W 093°20'0 0.0
2016-Apr-26 16:34N 30°09' W 093°20'0 0.0
2016-Apr-26 15:30N 30°09' W 093°20'0 0.0
2016-Apr-26 14:33N 30°09' W 093°20'0 0.0
2016-Apr-26 13:33N 30°09' W 093°20'0 0.0
2016-Apr-26 12:33N 30°09' W 093°20'0 0.0
2016-Apr-26 11:33N 30°09' W 093°20'0 0.0
2016-Apr-26 10:33N 30°09' W 093°20'3 2.6
2016-Apr-26 09:33N 30°06' W 093°20'4 4.4
2016-Apr-26 08:33N 30°02' W 093°20'6 6.5
2016-Apr-26 07:33N 29°55' W 093°20'8 7.6
2016-Apr-26 06:33N 29°48' W 093°21'8 8.1
2016-Apr-26 05:33N 29°40' W 093°20'4 3.1
2016-Apr-26 04:15N 29°37' W 093°17'0 0.0
2016-Apr-26 02:33N 29°37' W 093°17'0 0.0
2016-Apr-26 00:33N 29°37' W 093°17'0 0.0
2016-Apr-25 23:24N 29°37' W 093°17'0 0.0
2016-Apr-25 22:33N 29°37' W 093°17'0 0.0
2016-Apr-25 21:27N 29°37' W 093°17'0 0.0
2016-Apr-25 20:33N 29°37' W 093°17'0 0.0
2016-Apr-25 18:24N 29°37' W 093°17'0 0.0
2016-Apr-25 17:33N 29°37' W 093°17'0 0.0
2016-Apr-25 16:33N 29°37' W 093°17'2 0.8
2016-Apr-25 14:32N 29°36' W 093°18'78 9.8
2016-Apr-25 06:32N 29°21' W 094°46'1111.6
2016-Apr-25 05:33N 29°31' W 094°53'1111.2
2016-Apr-25 04:33N 29°40' W 094°59'8 7.8
2016-Apr-25 03:33N 29°46' W 095°05'1 0.0
2016-Apr-24 06:32N 29°45' W 095°06'5 5.2
2016-Apr-24 05:33N 29°42' W 095°01'10 9.9
2016-Apr-24 04:33N 29°34' W 094°55'1110.5
2016-Apr-24 03:33N 29°24' W 094°49'4 0.5
2016-Apr-23 19:32N 29°21' W 094°47'1211.8
2016-Apr-23 18:33N 29°31' W 094°53'9 8.8
2016-Apr-23 17:34N 29°37' W 095°00'1 0.9
2016-Apr-23 16:32N 29°37' W 095°02'0 0.0
2016-Apr-23 15:32N 29°37' W 095°02'0 0.0
2016-Apr-23 14:29N 29°37' W 095°02'0 0.0
2016-Apr-23 13:32N 29°37' W 095°02'0 0.0
2016-Apr-23 12:32N 29°37' W 095°02'0 0.0
2016-Apr-23 11:32N 29°37' W 095°02'0 0.0
2016-Apr-23 10:32N 29°37' W 095°02'0 0.0
2016-Apr-23 09:29N 29°37' W 095°02'0 0.0
2016-Apr-23 08:32N 29°37' W 095°02'0 0.0
2016-Apr-23 07:32N 29°37' W 095°02'0 0.0
2016-Apr-23 06:32N 29°37' W 095°02'0 0.0
2016-Apr-23 05:32N 29°37' W 095°02'0 0.0
2016-Apr-23 04:32N 29°37' W 095°02'0 0.0
2016-Apr-23 03:32N 29°37' W 095°02'0 0.0
2016-Apr-23 02:32N 29°37' W 095°02'0 0.0
2016-Apr-23 01:32N 29°37' W 095°02'0 0.0
2016-Apr-23 00:32N 29°37' W 095°02'0 0.0
2016-Apr-22 23:32N 29°37' W 095°02'0 0.0
2016-Apr-22 22:32N 29°37' W 095°02'0 0.0
2016-Apr-22 21:32N 29°37' W 095°02'0 0.0
2016-Apr-22 20:32N 29°37' W 095°02'0 0.0
2016-Apr-22 19:32N 29°37' W 095°02'0 0.0
2016-Apr-22 18:32N 29°37' W 095°02'0 0.0
2016-Apr-22 17:32N 29°37' W 095°02'0 0.0
2016-Apr-22 16:32N 29°37' W 095°02'0 0.0
2016-Apr-22 15:32N 29°37' W 095°02'0 0.0
2016-Apr-22 14:32N 29°37' W 095°02'0 0.0
2016-Apr-22 13:32N 29°37' W 095°02'0 0.0
2016-Apr-22 12:32N 29°37' W 095°02'1 1.3
2016-Apr-22 11:33N 29°37' W 095°00'6 5.8
2016-Apr-22 10:33N 29°43' W 095°01'6 6.1
2016-Apr-22 09:30N 29°44' W 095°08'6 5.7
2016-Apr-22 08:31N 29°43' W 095°15'  

Dump ship's entire track history